createdAt,value
2023-03-06T00:01:20.047Z,0.60
2023-03-06T00:03:49.031Z,0.70
2023-03-06T00:06:17.767Z,0.70
2023-03-06T00:08:46.634Z,0.60
2023-03-06T00:11:16.055Z,0.63
2023-03-06T00:13:44.954Z,0.70
2023-03-06T00:16:14.106Z,0.70
2023-03-06T00:18:44.638Z,0.70
2023-03-06T00:21:13.493Z,0.70
2023-03-06T00:23:42.723Z,0.70
2023-03-06T00:26:12.421Z,0.70
2023-03-06T00:28:43.503Z,0.60
2023-03-06T00:31:12.349Z,0.60
2023-03-06T00:33:41.183Z,0.70
2023-03-06T00:36:10.180Z,0.70
2023-03-06T00:38:39.146Z,0.70
2023-03-06T00:41:10.157Z,0.70
2023-03-06T00:43:39.100Z,0.60
2023-03-06T00:46:09.832Z,0.60
2023-03-06T00:48:39.311Z,0.60
2023-03-06T00:51:08.105Z,0.68
2023-03-06T00:53:36.882Z,0.60
2023-03-06T00:56:05.829Z,0.65
2023-03-06T00:58:35.626Z,0.60
2023-03-06T01:01:05.518Z,0.60
2023-03-06T01:03:34.877Z,0.70
2023-03-06T01:06:04.862Z,0.68
2023-03-06T01:08:36.546Z,0.60
2023-03-06T01:11:05.507Z,0.70
2023-03-06T01:13:34.331Z,0.70
2023-03-06T01:16:29.126Z,0.60
2023-03-06T01:18:58.188Z,0.60
2023-03-06T01:21:30.135Z,0.60
2023-03-06T01:23:59.678Z,0.60
2023-03-06T01:26:28.527Z,0.60
2023-03-06T01:28:58.130Z,0.60
2023-03-06T01:31:27.020Z,0.60
2023-03-06T01:33:57.416Z,0.60
2023-03-06T01:36:26.235Z,0.60
2023-03-06T01:38:55.429Z,0.60
2023-03-06T01:41:24.256Z,0.60
2023-03-06T01:43:53.186Z,0.60
2023-03-06T01:46:30.594Z,0.60
2023-03-06T01:48:59.457Z,0.60
2023-03-06T01:51:41.954Z,0.50
2023-03-06T01:54:22.772Z,0.70
2023-03-06T01:56:57.470Z,0.55
2023-03-06T01:59:27.731Z,0.60
2023-03-06T02:01:59.004Z,0.60
2023-03-06T02:04:28.448Z,0.60
2023-03-06T02:07:01.984Z,0.60
2023-03-06T02:09:35.254Z,0.50
2023-03-06T02:12:09.724Z,0.50
2023-03-06T02:14:40.052Z,0.50
2023-03-06T02:17:11.314Z,0.57
2023-03-06T02:19:53.070Z,0.50
2023-03-06T02:22:24.198Z,0.50
2023-03-06T02:25:02.528Z,0.52
2023-03-06T02:27:32.511Z,0.60
2023-03-06T02:30:01.415Z,0.50
2023-03-06T02:32:32.291Z,0.50
2023-03-06T02:35:02.415Z,0.50
2023-03-06T02:37:31.863Z,0.50
2023-03-06T02:40:10.283Z,0.50
2023-03-06T02:42:39.248Z,0.60
2023-03-06T02:45:10.652Z,0.60
2023-03-06T02:47:40.466Z,0.50
2023-03-06T02:50:10.949Z,0.50
2023-03-06T02:52:39.767Z,0.50
2023-03-06T02:55:09.138Z,0.50
2023-03-06T02:57:38.047Z,0.50
2023-03-06T03:00:08.823Z,0.50
2023-03-06T03:02:38.502Z,0.50
2023-03-06T03:05:07.932Z,0.50
2023-03-06T03:07:37.309Z,0.50
2023-03-06T03:10:06.523Z,0.50
2023-03-06T03:12:35.277Z,0.50
2023-03-06T03:15:04.779Z,0.50
2023-03-06T03:17:36.831Z,0.50
2023-03-06T03:20:08.322Z,0.43
2023-03-06T03:22:37.528Z,0.50
2023-03-06T03:25:08.343Z,0.40
2023-03-06T03:27:37.191Z,0.40
2023-03-06T03:30:07.383Z,0.50
2023-03-06T03:32:38.000Z,0.47
2023-03-06T03:35:09.932Z,0.40
2023-03-06T03:37:39.503Z,0.40
2023-03-06T03:40:10.821Z,0.50
2023-03-06T03:42:40.812Z,0.50
2023-03-06T03:45:09.981Z,0.50
2023-03-06T03:47:38.986Z,0.50
2023-03-06T03:50:09.265Z,0.43
2023-03-06T03:52:38.492Z,0.40
2023-03-06T03:55:08.401Z,0.45
2023-03-06T03:57:42.042Z,0.40
2023-03-06T04:00:16.943Z,0.50
2023-03-06T04:02:56.560Z,0.50
2023-03-06T04:05:31.024Z,0.40
2023-03-06T04:08:01.798Z,0.50
2023-03-06T04:10:31.836Z,0.40
2023-03-06T04:13:01.171Z,0.50
2023-03-06T04:15:30.557Z,0.40
2023-03-06T04:18:01.671Z,0.45
2023-03-06T04:20:31.886Z,0.40
2023-03-06T04:23:02.409Z,0.40
2023-03-06T04:25:31.442Z,0.40
2023-03-06T04:28:03.650Z,0.40
2023-03-06T04:30:33.450Z,0.40
2023-03-06T04:33:03.384Z,0.50
2023-03-06T04:35:33.381Z,0.40
2023-03-06T04:38:06.889Z,0.43
2023-03-06T04:40:38.104Z,0.40
2023-03-06T04:43:07.197Z,0.40
2023-03-06T04:45:36.581Z,0.40
2023-03-06T04:48:05.544Z,0.40
2023-03-06T04:50:34.553Z,0.40
2023-03-06T04:53:05.237Z,0.40
2023-03-06T04:55:33.903Z,0.40
2023-03-06T04:58:03.004Z,0.40
2023-03-06T05:00:32.701Z,0.40
2023-03-06T05:03:02.649Z,0.40
2023-03-06T05:05:31.758Z,0.40
2023-03-06T05:08:00.601Z,0.40
2023-03-06T05:10:29.930Z,0.40
2023-03-06T05:12:58.804Z,0.40
2023-03-06T05:15:27.518Z,0.40
2023-03-06T05:17:57.478Z,0.40
2023-03-06T05:20:26.518Z,0.40
2023-03-06T05:22:56.111Z,0.40
2023-03-06T05:25:24.878Z,0.40
2023-03-06T05:27:53.952Z,0.40
2023-03-06T05:30:23.922Z,0.40
2023-03-06T05:32:52.926Z,0.40
2023-03-06T05:35:24.360Z,0.40
2023-03-06T05:37:53.347Z,0.40
2023-03-06T05:40:22.951Z,0.40
2023-03-06T05:42:51.911Z,0.40
2023-03-06T05:45:20.730Z,0.40
2023-03-06T05:47:49.432Z,0.40
2023-03-06T05:50:19.511Z,0.40
2023-03-06T05:52:48.670Z,0.40
2023-03-06T05:55:20.094Z,0.40
2023-03-06T05:57:49.481Z,0.40
2023-03-06T06:00:20.323Z,0.40
2023-03-06T06:02:49.921Z,0.40
2023-03-06T06:05:18.942Z,0.40
2023-03-06T06:07:48.168Z,0.40
2023-03-06T06:10:18.224Z,0.32
2023-03-06T06:12:47.007Z,0.40
2023-03-06T06:15:17.228Z,0.40
2023-03-06T06:17:46.241Z,0.40
2023-03-06T06:20:17.799Z,0.40
2023-03-06T06:22:46.680Z,0.40
2023-03-06T06:25:15.686Z,0.40
2023-03-06T06:27:44.562Z,0.30
2023-03-06T06:30:13.983Z,0.40
2023-03-06T06:32:42.819Z,0.30
2023-03-06T06:35:11.674Z,0.40
2023-03-06T06:37:40.571Z,0.40
2023-03-06T06:40:09.933Z,0.40
2023-03-06T06:42:40.250Z,0.40
2023-03-06T06:45:11.723Z,0.30
2023-03-06T06:47:44.032Z,0.40
2023-03-06T06:50:14.456Z,0.40
2023-03-06T06:52:43.389Z,0.40
2023-03-06T06:55:13.045Z,0.40
2023-03-06T06:57:43.086Z,0.40
2023-03-06T07:00:16.066Z,0.35
2023-03-06T07:02:45.076Z,0.40
2023-03-06T07:05:13.847Z,0.40
2023-03-06T07:07:43.028Z,0.30
2023-03-06T07:10:16.687Z,0.30
2023-03-06T07:12:45.631Z,0.40
2023-03-06T07:15:16.621Z,0.40
2023-03-06T07:17:45.578Z,0.40
2023-03-06T07:20:14.574Z,0.40
2023-03-06T07:22:50.961Z,0.32
2023-03-06T07:25:20.935Z,0.40
2023-03-06T07:27:55.285Z,0.30
2023-03-06T07:30:25.679Z,0.40
2023-03-06T07:32:56.376Z,0.30
2023-03-06T07:35:25.961Z,0.40
2023-03-06T07:37:55.154Z,0.40
2023-03-06T07:40:24.960Z,0.30
2023-03-06T07:43:12.868Z,0.40
2023-03-06T07:45:58.338Z,0.40
2023-03-06T07:48:28.590Z,0.40
2023-03-06T07:51:06.841Z,0.40
2023-03-06T07:53:36.181Z,0.30
2023-03-06T07:56:09.578Z,0.30
2023-03-06T07:58:41.568Z,0.40
2023-03-06T08:01:16.698Z,0.40
2023-03-06T08:03:45.943Z,0.40
2023-03-06T08:06:18.882Z,0.40
2023-03-06T08:08:49.202Z,0.40
2023-03-06T08:11:20.610Z,0.30
2023-03-06T08:13:50.245Z,0.40
2023-03-06T08:16:21.402Z,0.40
2023-03-06T08:18:50.485Z,0.40
2023-03-06T08:21:22.506Z,0.40
2023-03-06T08:23:51.633Z,0.40
2023-03-06T08:26:23.666Z,0.40
2023-03-06T08:28:53.745Z,0.40
2023-03-06T08:31:30.489Z,0.40
2023-03-06T08:34:02.572Z,0.40
2023-03-06T08:36:31.405Z,0.40
2023-03-06T08:39:00.939Z,0.40
2023-03-06T08:41:29.852Z,0.40
2023-03-06T08:43:58.766Z,0.40
2023-03-06T08:46:29.518Z,0.30
2023-03-06T08:48:58.508Z,0.40
2023-03-06T08:51:29.647Z,0.40
2023-03-06T08:53:59.072Z,0.40
2023-03-06T08:56:30.934Z,0.40
2023-03-06T08:59:02.288Z,0.40
2023-03-06T09:01:37.360Z,0.30
2023-03-06T09:04:09.540Z,0.30
2023-03-06T09:06:43.046Z,0.40
2023-03-06T09:09:12.804Z,0.30
2023-03-06T09:11:41.697Z,0.38
2023-03-06T09:14:10.433Z,0.38
2023-03-06T09:16:39.398Z,0.40
2023-03-06T09:19:08.285Z,0.40
2023-03-06T09:21:37.077Z,0.40
2023-03-06T09:24:06.112Z,0.40
2023-03-06T09:26:51.594Z,0.40
2023-03-06T09:29:21.862Z,0.40
2023-03-06T09:31:50.756Z,0.40
2023-03-06T09:34:19.619Z,0.40
2023-03-06T09:36:56.615Z,0.40
2023-03-06T09:39:27.732Z,0.40
2023-03-06T09:41:58.764Z,0.40
2023-03-06T09:44:30.961Z,0.40
2023-03-06T09:47:08.551Z,0.40
2023-03-06T09:50:06.276Z,0.40
2023-03-06T09:52:46.615Z,0.30
2023-03-06T09:55:25.063Z,0.40
2023-03-06T09:58:00.875Z,0.35
2023-03-06T10:00:37.208Z,0.40
2023-03-06T10:03:19.336Z,0.40
2023-03-06T10:06:00.897Z,0.40
2023-03-06T10:08:58.961Z,0.40
2023-03-06T10:11:36.575Z,0.40
2023-03-06T10:14:30.276Z,0.47
2023-03-06T10:16:59.425Z,0.40
2023-03-06T10:19:40.717Z,0.40
2023-03-06T10:22:27.887Z,0.40
2023-03-06T10:25:31.263Z,0.40
2023-03-06T10:28:15.156Z,0.40
2023-03-06T10:30:46.822Z,0.40
2023-03-06T10:33:18.658Z,0.40
2023-03-06T10:35:53.965Z,0.40
2023-03-06T10:38:38.053Z,0.40
2023-03-06T10:41:12.895Z,0.40
2023-03-06T10:44:00.410Z,0.40
2023-03-06T10:46:37.063Z,0.40
2023-03-06T10:49:22.384Z,0.50
2023-03-06T10:52:07.503Z,0.40
2023-03-06T10:54:39.851Z,0.50
2023-03-06T10:57:27.053Z,0.40
2023-03-06T10:59:58.866Z,0.40
2023-03-06T11:02:29.813Z,0.50
2023-03-06T11:05:01.592Z,0.50
2023-03-06T11:07:34.705Z,0.50
2023-03-06T11:10:19.842Z,0.40
2023-03-06T11:13:11.024Z,0.50
2023-03-06T11:15:39.985Z,0.40
2023-03-06T11:18:08.684Z,0.47
2023-03-06T11:20:53.034Z,0.50
2023-03-06T11:23:34.007Z,0.50
2023-03-06T11:26:11.885Z,0.50
2023-03-06T11:28:48.889Z,0.40
2023-03-06T11:31:22.930Z,0.50
2023-03-06T11:33:55.579Z,0.50
2023-03-06T11:36:32.391Z,0.50
2023-03-06T11:39:05.311Z,0.50
2023-03-06T11:41:37.024Z,0.50
2023-03-06T11:44:05.812Z,0.40
2023-03-06T11:46:43.133Z,0.50
2023-03-06T11:49:20.316Z,0.60
2023-03-06T11:51:56.924Z,0.50
2023-03-06T11:54:26.016Z,0.50
2023-03-06T11:56:57.437Z,0.50
2023-03-06T11:59:35.082Z,0.50
2023-03-06T12:02:23.926Z,0.50
2023-03-06T12:05:08.867Z,0.50
2023-03-06T12:08:07.582Z,0.50
2023-03-06T12:10:53.227Z,0.40
2023-03-06T12:13:30.585Z,0.50
2023-03-06T12:16:21.561Z,0.50
2023-03-06T12:18:55.575Z,0.50
2023-03-06T12:21:59.343Z,0.50
2023-03-06T12:25:27.033Z,0.57
2023-03-06T12:28:27.538Z,0.50
2023-03-06T12:31:07.847Z,0.50
2023-03-06T12:33:54.675Z,0.50
2023-03-06T12:36:53.230Z,0.60
2023-03-06T12:39:53.947Z,0.50
2023-03-06T12:42:43.018Z,0.60
2023-03-06T12:45:38.619Z,0.50
2023-03-06T12:48:24.088Z,0.60
2023-03-06T12:50:53.803Z,0.60
2023-03-06T12:53:31.787Z,0.50
2023-03-06T12:56:03.109Z,0.55
2023-03-06T12:58:32.086Z,0.60
2023-03-06T13:01:38.880Z,0.50
2023-03-06T13:04:41.397Z,0.50
2023-03-06T13:07:48.368Z,0.50
2023-03-06T13:10:34.209Z,0.60
2023-03-06T13:13:24.160Z,0.70
2023-03-06T13:16:14.506Z,0.60
2023-03-06T13:18:43.330Z,0.50
2023-03-06T13:21:43.237Z,0.60
2023-03-06T13:24:27.017Z,0.60
2023-03-06T13:27:08.219Z,0.60
2023-03-06T13:29:36.984Z,0.60
2023-03-06T13:32:16.980Z,0.60
2023-03-06T13:34:48.793Z,0.60
2023-03-06T13:37:21.007Z,0.50
2023-03-06T13:39:55.989Z,0.50
2023-03-06T13:42:30.597Z,0.60
2023-03-06T13:45:15.829Z,0.50
2023-03-06T13:48:33.933Z,0.50
2023-03-06T13:50:48.779Z,0.50
2023-03-06T13:53:38.702Z,0.60
2023-03-06T13:56:31.817Z,0.57
2023-03-06T13:59:28.783Z,0.60
2023-03-06T14:02:24.299Z,0.60
2023-03-06T14:04:56.050Z,0.60
2023-03-06T14:07:29.264Z,0.60
2023-03-06T14:10:11.558Z,0.60
2023-03-06T14:12:50.170Z,0.60
2023-03-06T14:15:33.353Z,0.60
2023-03-06T14:18:07.002Z,0.55
2023-03-06T14:20:51.260Z,0.60
2023-03-06T14:23:31.519Z,0.60
2023-03-06T14:26:18.222Z,0.60
2023-03-06T14:31:43.251Z,0.70
2023-03-06T14:34:22.265Z,0.60
2023-03-06T14:36:54.283Z,0.70
2023-03-06T14:39:25.442Z,0.63
2023-03-06T14:42:06.646Z,0.60
2023-03-06T14:44:36.060Z,0.60
2023-03-06T14:47:37.780Z,0.60
2023-03-06T14:50:22.321Z,0.60
2023-03-06T14:53:05.441Z,0.60
2023-03-06T14:55:36.759Z,0.60
2023-03-06T14:58:19.566Z,0.70
2023-03-06T15:00:55.321Z,0.60
2023-03-06T15:03:43.123Z,0.70
2023-03-06T15:06:38.387Z,0.60
2023-03-06T15:09:27.222Z,0.57
2023-03-06T15:11:59.898Z,0.65
2023-03-06T15:14:43.452Z,0.60
2023-03-06T15:17:18.231Z,0.60
2023-03-06T15:19:50.197Z,0.60
2023-03-06T15:22:28.047Z,0.60
2023-03-06T15:25:16.088Z,0.60
2023-03-06T15:27:59.777Z,0.60
2023-03-06T15:30:33.359Z,0.60
2023-03-06T15:33:12.334Z,0.60
2023-03-06T15:35:41.191Z,0.60
2023-03-06T15:38:27.315Z,0.68
2023-03-06T15:41:01.389Z,0.70
2023-03-06T15:43:39.288Z,0.70
2023-03-06T15:46:08.616Z,0.70
2023-03-06T15:48:37.598Z,0.70
2023-03-06T15:51:06.816Z,0.68
2023-03-06T15:53:35.566Z,0.60
2023-03-06T15:56:04.483Z,0.60
2023-03-06T15:58:34.859Z,0.63
2023-03-06T16:01:04.366Z,0.60
2023-03-06T16:03:33.477Z,0.60
2023-03-06T16:06:02.312Z,0.60
2023-03-06T16:08:31.134Z,0.68
2023-03-06T16:10:59.859Z,0.60
2023-03-06T16:13:29.788Z,0.60
2023-03-06T16:15:58.946Z,0.70
2023-03-06T16:18:27.816Z,0.60
2023-03-06T16:20:56.618Z,0.70
2023-03-06T16:23:25.725Z,0.60
2023-03-06T16:25:54.607Z,0.60
2023-03-06T16:28:23.547Z,0.63
2023-03-06T16:30:52.264Z,0.60
2023-03-06T16:33:21.039Z,0.60
2023-03-06T16:35:50.522Z,0.68
2023-03-06T16:38:19.347Z,0.70
2023-03-06T16:40:48.062Z,0.60
2023-03-06T16:43:17.083Z,0.70
2023-03-06T16:45:45.979Z,0.70
2023-03-06T16:48:17.396Z,0.70
2023-03-06T16:50:46.573Z,0.70
2023-03-06T16:53:16.071Z,0.63
2023-03-06T16:55:45.993Z,0.70
2023-03-06T16:58:14.886Z,0.60
2023-03-06T17:00:44.842Z,0.70
2023-03-06T17:03:14.582Z,0.60
2023-03-06T17:05:44.151Z,0.70
2023-03-06T17:08:12.998Z,0.70
2023-03-06T17:10:42.817Z,0.60
2023-03-06T17:13:11.629Z,0.70
2023-03-06T17:15:40.527Z,0.70
2023-03-06T17:18:09.462Z,0.60
2023-03-06T17:20:38.262Z,0.68
2023-03-06T17:23:06.965Z,0.70
2023-03-06T17:25:35.762Z,0.70
2023-03-06T17:28:04.473Z,0.70
2023-03-06T17:30:33.205Z,0.70
2023-03-06T17:33:02.125Z,0.70
2023-03-06T17:35:31.653Z,0.70
2023-03-06T17:38:00.441Z,0.60
2023-03-06T17:40:29.310Z,0.60
2023-03-06T17:42:57.984Z,0.60
2023-03-06T17:45:29.538Z,0.70
2023-03-06T17:47:58.235Z,0.70
2023-03-06T17:50:27.105Z,0.70
2023-03-06T17:52:55.910Z,0.70
2023-03-06T17:55:24.817Z,0.60
2023-03-06T17:57:53.894Z,0.70
2023-03-06T18:00:23.998Z,0.60
2023-03-06T18:02:53.891Z,0.70
2023-03-06T18:05:22.606Z,0.65
2023-03-06T18:07:51.338Z,0.60
2023-03-06T18:10:20.224Z,0.70
2023-03-06T18:12:49.322Z,0.70
2023-03-06T18:15:18.334Z,0.60
2023-03-06T18:17:47.077Z,0.68
2023-03-06T18:20:15.882Z,0.60
2023-03-06T18:22:44.596Z,0.65
2023-03-06T18:25:13.383Z,0.70
2023-03-06T18:27:42.128Z,0.60
2023-03-06T18:30:11.551Z,0.60
2023-03-06T18:32:40.684Z,0.60
2023-03-06T18:35:10.104Z,0.60
2023-03-06T18:37:39.048Z,0.60
2023-03-06T18:40:08.572Z,0.60
2023-03-06T18:42:37.345Z,0.60
2023-03-06T18:45:06.621Z,0.70
2023-03-06T18:47:35.513Z,0.60
2023-03-06T18:50:04.451Z,0.60
2023-03-06T18:52:35.445Z,0.60
2023-03-06T18:55:04.581Z,0.60
2023-03-06T18:57:33.356Z,0.60
2023-03-06T19:00:02.251Z,0.60
2023-03-06T19:02:33.555Z,0.60
2023-03-06T19:05:02.313Z,0.60
2023-03-06T19:07:31.881Z,0.60
2023-03-06T19:10:00.638Z,0.60
2023-03-06T19:12:29.399Z,0.60
2023-03-06T19:14:59.462Z,0.60
2023-03-06T19:17:28.192Z,0.55
2023-03-06T19:19:56.995Z,0.60
2023-03-06T19:22:25.870Z,0.60
2023-03-06T19:24:54.804Z,0.60
2023-03-06T19:27:23.530Z,0.60
2023-03-06T19:29:52.251Z,0.60
2023-03-06T19:32:20.997Z,0.60
2023-03-06T19:34:50.368Z,0.60
2023-03-06T19:37:19.260Z,0.60
2023-03-06T19:39:47.994Z,0.60
2023-03-06T19:42:17.092Z,0.60
2023-03-06T19:44:45.891Z,0.60
2023-03-06T19:47:14.725Z,0.60
2023-03-06T19:49:43.460Z,0.60
2023-03-06T19:52:12.177Z,0.60
2023-03-06T19:54:41.071Z,0.60
2023-03-06T19:57:09.762Z,0.70
2023-03-06T19:59:38.550Z,0.60
2023-03-06T20:02:08.250Z,0.70
2023-03-06T20:04:37.715Z,0.60
2023-03-06T20:07:06.634Z,0.60
2023-03-06T20:09:35.657Z,0.60
2023-03-06T20:12:06.004Z,0.65
2023-03-06T20:14:36.533Z,0.60
2023-03-06T20:17:05.305Z,0.60
2023-03-06T20:19:34.277Z,0.60
2023-03-06T20:22:03.059Z,0.60
2023-03-06T20:24:31.764Z,0.60
2023-03-06T20:27:00.513Z,0.60
2023-03-06T20:29:29.274Z,0.60
2023-03-06T20:31:58.764Z,0.60
2023-03-06T20:34:27.714Z,0.65
2023-03-06T20:36:58.420Z,0.70
2023-03-06T20:39:27.170Z,0.70
2023-03-06T20:41:55.942Z,0.60
2023-03-06T20:44:24.644Z,0.70
2023-03-06T20:46:53.751Z,0.60
2023-03-06T20:49:23.792Z,0.70
2023-03-06T20:51:53.386Z,0.70
2023-03-06T20:54:23.671Z,0.60
2023-03-06T20:56:52.519Z,0.65
2023-03-06T20:59:21.336Z,0.60
2023-03-06T21:01:50.870Z,0.60
2023-03-06T21:04:19.911Z,0.60
2023-03-06T21:06:48.774Z,0.60
2023-03-06T21:09:17.944Z,0.60
2023-03-06T21:11:47.468Z,0.60
2023-03-06T21:14:16.789Z,0.60
2023-03-06T21:16:45.759Z,0.60
2023-03-06T21:19:14.483Z,0.60
2023-03-06T21:21:43.489Z,0.60
2023-03-06T21:24:12.243Z,0.60
2023-03-06T21:26:40.985Z,0.60
2023-03-06T21:29:10.416Z,0.60
2023-03-06T21:31:39.343Z,0.60
2023-03-06T21:34:08.221Z,0.60
2023-03-06T21:36:37.048Z,0.60
2023-03-06T21:39:09.343Z,0.70
2023-03-06T21:41:38.724Z,0.60
2023-03-06T21:44:08.041Z,0.60
2023-03-06T21:46:36.816Z,0.60
2023-03-06T21:49:06.380Z,0.60
2023-03-06T21:51:35.446Z,0.60
2023-03-06T21:54:04.787Z,0.60
2023-03-06T21:56:34.020Z,0.60
2023-03-06T21:59:02.779Z,0.60
2023-03-06T22:01:32.676Z,0.60
2023-03-06T22:04:01.752Z,0.70
2023-03-06T22:06:31.739Z,0.60
2023-03-06T22:09:01.637Z,0.60
2023-03-06T22:11:37.497Z,0.63
2023-03-06T22:14:07.278Z,0.70
2023-03-06T22:16:36.074Z,0.60
2023-03-06T22:19:05.007Z,0.70
2023-03-06T22:21:34.008Z,0.70
2023-03-06T22:24:02.978Z,0.70
2023-03-06T22:26:31.776Z,0.70
2023-03-06T22:29:00.616Z,0.60
2023-03-06T22:31:29.855Z,0.70
2023-03-06T22:34:01.029Z,0.60
2023-03-06T22:36:31.550Z,0.60
2023-03-06T22:39:02.587Z,0.60
2023-03-06T22:41:31.921Z,0.60
2023-03-06T22:44:02.392Z,0.70
2023-03-06T22:46:32.146Z,0.63
2023-03-06T22:49:02.032Z,0.70
2023-03-06T22:51:31.186Z,0.60
2023-03-06T22:54:01.247Z,0.60
2023-03-06T22:56:30.525Z,0.70
2023-03-06T22:59:05.770Z,0.70
2023-03-06T23:01:36.182Z,0.70
2023-03-06T23:04:11.483Z,0.70
2023-03-06T23:06:43.628Z,0.70
2023-03-06T23:09:21.164Z,0.70
2023-03-06T23:12:09.653Z,0.68
2023-03-06T23:14:56.477Z,0.70
2023-03-06T23:17:43.557Z,0.70
2023-03-06T23:20:30.734Z,0.70
2023-03-06T23:23:18.132Z,0.70
2023-03-06T23:25:46.858Z,0.70
2023-03-06T23:28:15.891Z,0.70
2023-03-06T23:30:45.305Z,0.70
2023-03-06T23:33:14.009Z,0.70
2023-03-06T23:35:44.745Z,0.70
2023-03-06T23:38:13.841Z,0.70
2023-03-06T23:40:43.008Z,0.70
2023-03-06T23:43:11.814Z,0.70
2023-03-06T23:45:40.699Z,0.70
2023-03-06T23:48:09.483Z,0.70
2023-03-06T23:50:41.638Z,0.70
2023-03-06T23:53:10.452Z,0.70
2023-03-06T23:55:43.266Z,0.70
2023-03-06T23:58:12.550Z,0.70
